createdAt,value
2023-02-09T00:00:02.305Z,23.04
2023-02-09T00:01:01.017Z,23.04
2023-02-09T00:02:01.083Z,23.02
2023-02-09T00:03:00.923Z,23.03
2023-02-09T00:04:00.966Z,23.02
2023-02-09T00:05:00.796Z,23.04
2023-02-09T00:06:00.713Z,23.02
2023-02-09T00:55:25.689Z,23.49
2023-02-09T00:56:26.636Z,22.90
2023-02-09T00:57:26.608Z,22.79
2023-02-09T00:58:26.573Z,22.73
2023-02-09T00:59:26.545Z,22.68
2023-02-09T01:00:26.527Z,22.65
2023-02-09T01:01:26.540Z,22.60
2023-02-09T01:02:26.446Z,22.57
2023-02-09T01:03:26.413Z,22.58
2023-02-09T01:04:26.406Z,22.56
2023-02-09T01:05:26.380Z,22.57
2023-02-09T01:06:26.345Z,22.53
2023-02-09T01:07:26.291Z,22.52
2023-02-09T01:08:26.259Z,22.50
2023-02-09T01:09:26.228Z,22.50
2023-02-09T01:10:26.201Z,22.50
2023-02-09T01:11:26.180Z,22.50
2023-02-09T01:12:26.113Z,22.48
2023-02-09T01:13:26.077Z,22.44
2023-02-09T01:14:26.048Z,22.44
2023-02-09T01:16:26.100Z,22.43
2023-02-09T01:17:25.945Z,22.41
2023-02-09T01:19:25.877Z,22.41
2023-02-09T01:25:25.677Z,22.38
2023-02-09T01:42:25.066Z,22.34
2023-02-09T01:43:25.061Z,22.35
2023-02-09T01:44:24.998Z,22.35
2023-02-09T01:45:24.962Z,22.33
2023-02-09T01:46:25.009Z,22.33
2023-02-09T01:47:24.886Z,22.30
2023-02-09T01:48:24.845Z,22.27
2023-02-09T01:49:24.836Z,22.27
2023-02-09T01:51:24.745Z,22.29
2023-02-09T01:53:24.673Z,22.24
2023-02-09T01:54:24.650Z,22.24
2023-02-09T01:55:24.602Z,22.23
2023-02-09T01:56:24.557Z,22.23
2023-02-09T01:57:24.532Z,22.26
2023-02-09T01:58:24.491Z,22.24
2023-02-09T01:59:24.478Z,22.22
2023-02-09T02:00:24.424Z,22.23
2023-02-09T02:01:24.494Z,22.19
2023-02-09T02:02:24.390Z,22.21
2023-02-09T02:03:24.304Z,22.22
2023-02-09T02:04:24.275Z,22.20
2023-02-09T02:05:24.241Z,22.18
2023-02-09T02:06:24.212Z,22.17
2023-02-09T02:07:24.163Z,22.15
2023-02-09T02:08:24.137Z,22.16
2023-02-09T02:09:24.092Z,22.14
2023-02-09T02:10:24.055Z,22.14
2023-02-09T02:11:24.032Z,22.12
2023-02-09T02:12:23.977Z,22.11
2023-02-09T02:13:23.934Z,22.12
2023-02-09T02:14:23.901Z,22.12
2023-02-09T02:15:23.888Z,22.14
2023-02-09T02:16:23.834Z,22.10
2023-02-09T02:17:23.790Z,22.11
2023-02-09T02:18:23.760Z,22.11
2023-02-09T02:19:23.719Z,22.07
2023-02-09T02:20:23.705Z,22.07
2023-02-09T02:21:23.652Z,22.04
2023-02-09T02:22:23.620Z,22.06
2023-02-09T02:23:23.585Z,22.06
2023-02-09T02:24:23.555Z,22.07
2023-02-09T02:25:23.514Z,22.04
2023-02-09T02:26:23.500Z,22.04
2023-02-09T02:27:23.456Z,22.06
2023-02-09T02:28:23.482Z,22.05
2023-02-09T02:29:24.243Z,22.05
2023-02-09T02:30:23.406Z,22.05
2023-02-09T02:31:23.593Z,22.02
2023-02-09T02:32:23.294Z,22.02
2023-02-09T02:33:23.249Z,22.01
2023-02-09T02:34:23.217Z,22.00
2023-02-09T02:35:23.179Z,22.01
2023-02-09T02:36:23.149Z,21.99
2023-02-09T02:37:23.108Z,21.98
2023-02-09T02:38:23.096Z,21.97
2023-02-09T02:39:23.047Z,21.97
2023-02-09T02:40:22.999Z,21.97
2023-02-09T02:41:22.972Z,21.99
2023-02-09T02:42:22.933Z,21.97
2023-02-09T02:43:22.896Z,21.96
2023-02-09T02:44:22.866Z,21.97
2023-02-09T02:45:22.826Z,21.95
2023-02-09T02:46:22.827Z,21.96
2023-02-09T02:47:22.766Z,21.94
2023-02-09T02:48:22.703Z,21.95
2023-02-09T02:49:22.673Z,21.94
2023-02-09T02:50:22.630Z,21.91
2023-02-09T02:51:22.585Z,21.91
2023-02-09T02:52:22.548Z,21.91
2023-02-09T02:53:22.502Z,21.89
2023-02-09T02:54:22.458Z,21.87
2023-02-09T02:55:22.425Z,21.88
2023-02-09T02:56:22.376Z,21.86
2023-02-09T02:57:22.345Z,21.86
2023-02-09T02:58:22.302Z,21.85
2023-02-09T02:59:22.270Z,21.85
2023-02-09T03:00:22.231Z,21.87
2023-02-09T03:01:22.266Z,21.85
2023-02-09T03:02:22.142Z,21.83
2023-02-09T03:03:22.135Z,21.85
2023-02-09T03:04:22.053Z,21.83
2023-02-09T03:05:22.024Z,21.83
2023-02-09T03:06:21.968Z,21.81
2023-02-09T03:07:21.927Z,21.80
2023-02-09T03:08:21.875Z,21.78
2023-02-09T03:09:21.843Z,21.79
2023-02-09T03:10:21.786Z,21.77
2023-02-09T03:11:21.759Z,21.79
2023-02-09T03:12:21.705Z,21.75
2023-02-09T03:13:21.655Z,21.76
2023-02-09T03:14:21.614Z,21.73
2023-02-09T03:15:21.573Z,21.74
2023-02-09T03:16:21.600Z,21.75
2023-02-09T03:17:21.482Z,21.73
2023-02-09T03:18:21.464Z,21.76
2023-02-09T03:19:21.429Z,21.73
2023-02-09T03:20:21.359Z,21.71
2023-02-09T03:21:21.336Z,21.69
2023-02-09T03:22:21.270Z,21.71
2023-02-09T03:23:21.220Z,21.71
2023-02-09T03:24:21.175Z,21.74
2023-02-09T03:25:21.140Z,21.76
2023-02-09T03:26:21.095Z,21.76
2023-02-09T03:27:21.068Z,21.74
2023-02-09T03:28:21.082Z,21.73
2023-02-09T03:29:20.997Z,21.74
2023-02-09T03:30:21.006Z,21.71
2023-02-09T03:31:21.016Z,21.69
2023-02-09T03:32:20.835Z,21.69
2023-02-09T03:33:20.796Z,21.67
2023-02-09T03:34:20.751Z,21.69
2023-02-09T03:35:20.733Z,21.68
2023-02-09T03:36:20.679Z,21.65
2023-02-09T03:37:20.642Z,21.64
2023-02-09T03:38:20.585Z,21.64
2023-02-09T03:39:20.546Z,21.64
2023-02-09T03:40:20.504Z,21.65
2023-02-09T03:41:20.462Z,21.60
2023-02-09T03:42:20.421Z,21.61
2023-02-09T03:43:20.380Z,21.59
2023-02-09T03:44:20.343Z,21.58
2023-02-09T03:45:20.295Z,21.55
2023-02-09T03:46:20.284Z,21.56
2023-02-09T03:47:20.225Z,21.57
2023-02-09T03:48:20.185Z,21.55
2023-02-09T03:49:20.156Z,21.56
2023-02-09T03:50:20.125Z,21.54
2023-02-09T03:51:20.106Z,21.52
2023-02-09T03:52:20.046Z,21.53
2023-02-09T03:53:19.978Z,21.54
2023-02-09T03:54:19.949Z,21.54
2023-02-09T03:55:19.921Z,21.53
2023-02-09T03:56:19.874Z,21.52
2023-02-09T03:57:19.820Z,21.52
2023-02-09T03:58:19.776Z,21.53
2023-02-09T03:59:19.737Z,21.52
2023-02-09T04:00:19.687Z,21.51
2023-02-09T04:01:19.696Z,21.49
2023-02-09T04:02:19.674Z,21.50
2023-02-09T04:03:19.554Z,21.53
2023-02-09T04:04:19.507Z,21.49
2023-02-09T04:05:19.471Z,21.50
2023-02-09T04:06:19.422Z,21.47
2023-02-09T04:07:19.389Z,21.49
2023-02-09T04:08:19.313Z,21.46
2023-02-09T04:09:19.275Z,21.48
2023-02-09T04:10:19.227Z,21.48
2023-02-09T04:11:19.188Z,21.48
2023-02-09T04:12:19.146Z,21.48
2023-02-09T04:13:19.101Z,21.44
2023-02-09T04:14:19.046Z,21.47
2023-02-09T04:15:19.002Z,21.45
2023-02-09T04:16:18.999Z,21.47
2023-02-09T04:17:18.930Z,21.45
2023-02-09T04:18:18.859Z,21.45
2023-02-09T04:19:18.816Z,21.43
2023-02-09T04:20:18.767Z,21.44
2023-02-09T04:21:18.728Z,21.44
2023-02-09T04:22:18.681Z,21.41
2023-02-09T04:23:20.945Z,21.42
2023-02-09T04:24:18.590Z,21.43
2023-02-09T04:25:18.546Z,21.43
2023-02-09T04:26:18.503Z,21.43
2023-02-09T04:27:18.454Z,21.41
2023-02-09T04:28:18.457Z,21.42
2023-02-09T04:29:18.366Z,21.42
2023-02-09T04:30:18.323Z,21.41
2023-02-09T04:31:18.482Z,21.39
2023-02-09T04:32:18.257Z,21.38
2023-02-09T04:33:18.190Z,21.35
2023-02-09T04:34:18.174Z,21.35
2023-02-09T04:35:18.112Z,21.37
2023-02-09T04:36:18.059Z,21.36
2023-02-09T04:37:18.021Z,21.33
2023-02-09T04:38:17.981Z,21.32
2023-02-09T04:39:17.971Z,21.36
2023-02-09T04:40:17.903Z,21.37
2023-02-09T04:41:17.862Z,21.38
2023-02-09T04:42:17.814Z,21.38
2023-02-09T04:43:17.779Z,21.37
2023-02-09T04:44:17.743Z,21.35
2023-02-09T04:45:17.713Z,21.34
2023-02-09T04:46:17.802Z,21.32
2023-02-09T04:47:17.605Z,21.33
2023-02-09T04:48:17.557Z,21.32
2023-02-09T04:49:17.520Z,21.31
2023-02-09T04:50:17.513Z,21.33
2023-02-09T04:51:17.422Z,21.31
2023-02-09T04:52:17.381Z,21.31
2023-02-09T04:53:17.342Z,21.31
2023-02-09T04:54:17.294Z,21.32
2023-02-09T04:55:17.279Z,21.30
2023-02-09T04:56:17.248Z,21.31
2023-02-09T04:57:17.164Z,21.29
2023-02-09T04:58:17.288Z,21.31
2023-02-09T04:59:17.089Z,21.32
2023-02-09T05:00:17.035Z,21.29
2023-02-09T05:01:17.094Z,21.28
2023-02-09T05:02:16.955Z,21.27
2023-02-09T05:03:16.987Z,21.28
2023-02-09T05:04:16.872Z,21.27
2023-02-09T05:05:16.858Z,21.27
2023-02-09T05:06:16.785Z,21.27
2023-02-09T05:07:16.752Z,21.26
2023-02-09T05:08:16.709Z,21.27
2023-02-09T05:09:16.664Z,21.24
2023-02-09T05:10:16.622Z,21.25
2023-02-09T05:11:16.604Z,21.26
2023-02-09T05:12:16.540Z,21.26
2023-02-09T05:13:16.485Z,21.24
2023-02-09T05:14:16.445Z,21.24
2023-02-09T05:15:16.401Z,21.25
2023-02-09T05:16:16.399Z,21.26
2023-02-09T05:17:16.306Z,21.23
2023-02-09T05:18:16.265Z,21.24
2023-02-09T05:19:16.214Z,21.20
2023-02-09T05:20:16.170Z,21.23
2023-02-09T05:21:16.129Z,21.21
2023-02-09T05:22:16.105Z,21.23
2023-02-09T05:23:16.043Z,21.20
2023-02-09T05:24:16.013Z,21.18
2023-02-09T05:25:15.952Z,21.18
2023-02-09T05:26:15.912Z,21.19
2023-02-09T05:27:15.894Z,21.18
2023-02-09T05:28:15.909Z,21.18
2023-02-09T05:29:15.782Z,21.20
2023-02-09T05:30:15.738Z,21.19
2023-02-09T05:31:15.805Z,21.18
2023-02-09T05:32:15.684Z,21.19
2023-02-09T05:33:15.613Z,21.22
2023-02-09T05:34:15.582Z,21.17
2023-02-09T05:35:15.525Z,21.12
2023-02-09T05:36:15.480Z,21.16
2023-02-09T05:37:15.431Z,21.18
2023-02-09T05:38:15.393Z,21.14
2023-02-09T05:39:15.354Z,21.16
2023-02-09T05:40:15.326Z,21.17
2023-02-09T05:41:15.283Z,21.16
2023-02-09T05:42:15.250Z,21.16
2023-02-09T05:43:15.229Z,21.17
2023-02-09T05:44:15.160Z,21.17
2023-02-09T05:45:15.130Z,21.18
2023-02-09T05:46:15.173Z,21.17
2023-02-09T05:47:15.045Z,21.19
2023-02-09T05:48:15.012Z,21.18
2023-02-09T05:49:14.960Z,21.15
2023-02-09T05:50:14.917Z,21.15
2023-02-09T05:51:14.918Z,21.16
2023-02-09T05:52:14.834Z,21.16
2023-02-09T05:53:15.301Z,21.15
2023-02-09T05:54:14.757Z,21.13
2023-02-09T05:55:14.720Z,21.12
2023-02-09T05:56:14.684Z,21.11
2023-02-09T05:57:14.634Z,21.13
2023-02-09T05:58:15.068Z,21.11
2023-02-09T05:59:14.574Z,21.14
2023-02-09T06:00:14.496Z,21.11
2023-02-09T06:01:14.449Z,21.10
2023-02-09T06:02:14.438Z,21.08
2023-02-09T06:03:14.376Z,21.06
2023-02-09T06:04:14.327Z,21.05
2023-02-09T06:05:14.275Z,21.07
2023-02-09T06:06:14.231Z,21.07
2023-02-09T06:07:14.329Z,21.05
2023-02-09T06:08:14.140Z,21.06
2023-02-09T06:09:14.096Z,21.05
2023-02-09T06:10:14.056Z,21.05
2023-02-09T06:11:14.018Z,21.04
2023-02-09T06:12:13.980Z,21.04
2023-02-09T06:13:13.931Z,21.04
2023-02-09T06:14:13.885Z,21.06
2023-02-09T06:15:13.877Z,21.05
2023-02-09T06:16:13.800Z,21.04
2023-02-09T06:17:13.773Z,21.05
2023-02-09T06:18:13.721Z,21.04
2023-02-09T06:19:13.686Z,21.04
2023-02-09T06:20:13.646Z,21.07
2023-02-09T06:21:13.597Z,21.09
2023-02-09T06:22:13.838Z,21.10
2023-02-09T06:23:13.532Z,21.10
2023-02-09T06:24:13.482Z,21.09
2023-02-09T06:25:13.442Z,21.10
2023-02-09T06:26:13.426Z,21.11
2023-02-09T06:27:13.355Z,21.13
2023-02-09T06:28:13.389Z,21.14
2023-02-09T06:29:13.251Z,21.14
2023-02-09T06:30:13.211Z,21.14
2023-02-09T06:31:13.320Z,21.14
2023-02-09T06:32:13.420Z,21.10
2023-02-09T06:33:13.067Z,21.12
2023-02-09T06:34:13.018Z,21.13
2023-02-09T06:35:12.967Z,21.16
2023-02-09T06:36:12.931Z,21.16
2023-02-09T06:37:13.355Z,21.16
2023-02-09T06:38:12.866Z,21.16
2023-02-09T06:39:12.795Z,21.16
2023-02-09T06:40:12.757Z,21.16
2023-02-09T06:41:13.349Z,21.15
2023-02-09T06:42:12.857Z,21.16
2023-02-09T06:43:12.628Z,21.20
2023-02-09T06:44:12.570Z,21.29
2023-02-09T06:45:12.552Z,21.64
2023-02-09T06:46:12.580Z,21.73
2023-02-09T06:47:12.868Z,22.05
2023-02-09T06:48:12.424Z,21.96
2023-02-09T06:49:12.846Z,22.09
2023-02-09T06:50:12.319Z,22.17
2023-02-09T06:51:12.284Z,22.12
2023-02-09T06:52:12.232Z,22.12
2023-02-09T06:53:12.189Z,22.19
2023-02-09T06:54:12.365Z,22.31
2023-02-09T06:55:12.106Z,22.34
2023-02-09T06:56:12.356Z,22.48
2023-02-09T06:57:12.762Z,22.91
2023-02-09T06:58:11.964Z,22.86
2023-02-09T06:59:11.929Z,22.96
2023-02-09T07:00:11.910Z,23.01
2023-02-09T07:01:12.059Z,22.92
2023-02-09T07:02:11.768Z,22.82
2023-02-09T07:03:11.911Z,22.86
2023-02-09T07:04:27.322Z,22.85
2023-02-09T07:05:11.644Z,22.84
2023-02-09T07:06:12.359Z,22.86
2023-02-09T07:07:11.852Z,22.85
2023-02-09T07:08:14.701Z,22.86
2023-02-09T07:09:11.481Z,22.87
2023-02-09T07:10:11.400Z,22.84
2023-02-09T07:11:11.371Z,22.79
2023-02-09T07:12:11.318Z,22.79
2023-02-09T07:13:11.270Z,22.82
2023-02-09T07:14:11.219Z,22.75
2023-02-09T07:15:11.147Z,22.75
2023-02-09T07:16:11.621Z,22.76
2023-02-09T07:17:14.262Z,22.75
2023-02-09T07:18:11.378Z,22.74
2023-02-09T07:19:11.016Z,22.74
2023-02-09T07:20:10.926Z,22.73
2023-02-09T07:21:10.886Z,22.72
2023-02-09T07:22:10.872Z,22.71
2023-02-09T07:23:10.796Z,22.70
2023-02-09T07:24:10.749Z,22.73
2023-02-09T07:25:10.860Z,22.71
2023-02-09T07:26:10.648Z,22.71
2023-02-09T07:27:10.602Z,22.69
2023-02-09T07:28:10.597Z,22.69
2023-02-09T07:29:12.607Z,22.66
2023-02-09T07:30:11.366Z,22.66
2023-02-09T07:31:10.604Z,22.63
2023-02-09T07:32:10.464Z,22.66
2023-02-09T07:33:10.338Z,22.64
2023-02-09T07:34:10.295Z,22.60
2023-02-09T07:35:10.388Z,22.60
2023-02-09T07:36:10.228Z,22.61
2023-02-09T07:37:10.177Z,22.59
2023-02-09T07:38:10.363Z,22.56
2023-02-09T07:39:10.081Z,22.57
2023-02-09T07:40:10.131Z,22.56
2023-02-09T07:41:10.030Z,22.60
2023-02-09T07:42:09.946Z,22.57
2023-02-09T07:43:09.907Z,22.56
2023-02-09T07:44:10.882Z,22.56
2023-02-09T07:45:13.078Z,22.57
2023-02-09T07:46:09.878Z,22.58
2023-02-09T07:47:09.762Z,22.55
2023-02-09T07:48:09.864Z,22.55
2023-02-09T07:49:09.656Z,22.56
2023-02-09T07:50:19.114Z,22.54
2023-02-09T07:51:09.888Z,22.54
2023-02-09T07:52:09.876Z,22.54
2023-02-09T07:53:09.863Z,22.53
2023-02-09T07:54:09.523Z,22.52
2023-02-09T07:55:09.385Z,22.53
2023-02-09T07:56:09.350Z,22.49
2023-02-09T07:57:09.379Z,22.48
2023-02-09T07:58:09.270Z,22.44
2023-02-09T07:59:09.377Z,22.48
2023-02-09T08:00:09.172Z,22.43
2023-02-09T08:01:09.126Z,22.44
2023-02-09T08:02:09.118Z,22.41
2023-02-09T08:03:09.058Z,22.40
2023-02-09T08:04:09.379Z,22.39
2023-02-09T08:05:09.028Z,22.38
2023-02-09T08:06:08.959Z,22.38
2023-02-09T08:07:08.876Z,22.37
2023-02-09T08:08:08.870Z,22.35
2023-02-09T08:09:08.798Z,22.35
2023-02-09T08:10:08.753Z,22.33
2023-02-09T08:11:08.877Z,22.32
2023-02-09T08:12:08.730Z,22.29
2023-02-09T08:13:08.615Z,22.30
2023-02-09T08:14:08.578Z,22.26
2023-02-09T08:15:08.536Z,22.27
2023-02-09T08:16:08.965Z,22.26
2023-02-09T08:17:08.452Z,22.24
2023-02-09T08:18:08.407Z,22.23
2023-02-09T08:19:08.881Z,22.22
2023-02-09T08:20:08.347Z,22.20
2023-02-09T08:21:08.299Z,22.18
2023-02-09T08:22:08.400Z,22.19
2023-02-09T08:23:08.225Z,22.17
2023-02-09T08:24:08.806Z,22.17
2023-02-09T08:25:08.150Z,22.17
2023-02-09T08:26:08.377Z,22.19
2023-02-09T08:27:08.723Z,22.16
2023-02-09T08:28:08.081Z,22.17
2023-02-09T08:29:07.996Z,22.18
2023-02-09T08:30:07.963Z,22.17
2023-02-09T08:31:08.524Z,22.16
2023-02-09T08:32:07.958Z,22.16
2023-02-09T08:33:07.880Z,22.11
2023-02-09T08:34:07.888Z,22.08
2023-02-09T08:35:07.774Z,22.08
2023-02-09T08:36:07.753Z,22.09
2023-02-09T08:37:07.699Z,22.16
2023-02-09T08:38:07.687Z,22.18
2023-02-09T08:39:07.919Z,22.16
2023-02-09T08:40:07.894Z,22.31
2023-02-09T08:41:07.743Z,22.39
2023-02-09T08:42:08.392Z,22.47
2023-02-09T08:43:07.645Z,22.64
2023-02-09T08:44:07.603Z,23.10
2023-02-09T08:45:07.929Z,23.04
2023-02-09T08:46:08.122Z,23.06
2023-02-09T08:47:07.621Z,23.30
2023-02-09T08:48:07.478Z,23.36
2023-02-09T08:49:07.428Z,23.51
2023-02-09T08:50:07.394Z,23.69
2023-02-09T08:51:07.332Z,23.73
2023-02-09T08:52:07.283Z,23.76
2023-02-09T08:53:07.238Z,23.84
2023-02-09T08:54:07.208Z,23.88
2023-02-09T08:55:07.458Z,23.94
2023-02-09T08:56:07.090Z,24.19
2023-02-09T08:57:07.036Z,24.20
2023-02-09T08:58:06.994Z,24.29
2023-02-09T08:59:06.930Z,24.34
2023-02-09T09:00:06.892Z,24.71
2023-02-09T09:01:06.880Z,24.64
2023-02-09T09:02:06.814Z,24.66
2023-02-09T09:03:06.746Z,24.75
2023-02-09T09:04:06.693Z,24.79
2023-02-09T09:05:07.854Z,24.93
2023-02-09T09:06:06.602Z,25.05
2023-02-09T09:07:06.541Z,25.17
2023-02-09T09:08:06.485Z,25.22
2023-02-09T09:09:07.126Z,25.28
2023-02-09T09:10:06.937Z,25.37
2023-02-09T09:11:06.364Z,25.43
2023-02-09T09:12:06.400Z,25.58
2023-02-09T09:13:06.245Z,25.63
2023-02-09T09:14:06.203Z,25.69
2023-02-09T09:15:06.407Z,25.87
2023-02-09T09:16:06.135Z,25.93
2023-02-09T09:17:06.044Z,26.02
2023-02-09T09:18:05.993Z,26.12
2023-02-09T09:19:05.948Z,26.18
2023-02-09T09:20:05.913Z,26.26
2023-02-09T09:21:05.864Z,26.37
2023-02-09T09:22:05.812Z,26.41
2023-02-09T09:23:05.751Z,26.61
2023-02-09T09:24:05.698Z,26.71
2023-02-09T09:25:05.666Z,26.85
2023-02-09T09:26:05.631Z,26.96
2023-02-09T09:27:05.553Z,26.96
2023-02-09T09:28:05.955Z,27.07
2023-02-09T09:29:05.451Z,27.14
2023-02-09T09:30:05.911Z,27.28
2023-02-09T09:31:05.386Z,27.40
2023-02-09T09:32:05.380Z,27.45
2023-02-09T09:33:05.331Z,27.61
2023-02-09T09:34:05.405Z,27.65
2023-02-09T09:35:05.155Z,27.76
2023-02-09T09:36:05.113Z,27.88
2023-02-09T09:37:05.058Z,28.02
2023-02-09T09:38:05.018Z,28.00
2023-02-09T09:39:05.421Z,28.10
2023-02-09T09:40:04.905Z,28.22
2023-02-09T09:41:04.869Z,28.61
2023-02-09T09:42:04.841Z,28.49
2023-02-09T09:43:04.763Z,28.59
2023-02-09T09:44:04.910Z,28.79
2023-02-09T09:45:04.917Z,28.77
2023-02-09T09:46:04.642Z,29.15
2023-02-09T09:47:04.583Z,29.35
2023-02-09T09:48:04.549Z,29.35
2023-02-09T09:49:05.013Z,29.30
2023-02-09T09:50:04.432Z,29.09
2023-02-09T09:51:04.385Z,29.13
2023-02-09T09:52:04.335Z,29.04
2023-02-09T09:53:04.278Z,28.93
2023-02-09T09:54:04.416Z,28.86
2023-02-09T09:55:04.415Z,28.82
2023-02-09T09:56:04.436Z,28.77
2023-02-09T09:57:04.109Z,28.70
2023-02-09T09:58:04.073Z,28.74
2023-02-09T09:59:04.014Z,26.39
2023-02-09T10:00:03.944Z,24.46
2023-02-09T10:01:03.983Z,21.77
2023-02-09T10:02:03.988Z,20.31
2023-02-09T10:03:03.826Z,19.72
2023-02-09T10:04:03.808Z,19.47
2023-02-09T10:05:03.797Z,19.26
2023-02-09T10:06:03.930Z,19.04
2023-02-09T10:07:03.757Z,18.63
2023-02-09T10:08:03.767Z,18.32
2023-02-09T10:09:03.743Z,18.16
2023-02-09T10:10:03.736Z,18.10
2023-02-09T10:11:03.935Z,18.12
2023-02-09T10:12:03.755Z,18.08
2023-02-09T10:13:03.917Z,18.09
2023-02-09T10:14:03.793Z,18.31
2023-02-09T10:16:03.774Z,18.54
2023-02-09T10:17:03.935Z,18.53
2023-02-09T10:18:03.969Z,18.63
2023-02-09T10:19:03.838Z,18.72
2023-02-09T10:20:03.838Z,18.96
2023-02-09T10:21:03.883Z,19.01
2023-02-09T10:22:03.872Z,19.42
2023-02-09T10:23:03.923Z,19.06
2023-02-09T10:24:03.889Z,19.09
2023-02-09T10:25:03.897Z,19.01
2023-02-09T10:26:03.880Z,19.11
2023-02-09T10:27:03.877Z,18.96
2023-02-09T10:28:04.008Z,18.91
2023-02-09T10:29:03.864Z,18.86
2023-02-09T10:30:03.899Z,18.73
2023-02-09T10:32:04.003Z,18.60
2023-02-09T10:33:03.922Z,18.55
2023-02-09T10:34:03.823Z,18.50
2023-02-09T10:35:03.794Z,18.46
2023-02-09T10:36:03.953Z,18.42
2023-02-09T10:37:03.757Z,18.34
2023-02-09T10:38:03.929Z,18.33
2023-02-09T10:39:03.714Z,18.28
2023-02-09T10:40:03.704Z,18.49
2023-02-09T10:41:03.695Z,18.87
2023-02-09T10:42:03.660Z,18.64
2023-02-09T10:43:03.944Z,18.57
2023-02-09T10:44:03.610Z,18.68
2023-02-09T10:45:03.589Z,18.74
2023-02-09T10:46:03.710Z,18.70
2023-02-09T10:47:03.926Z,18.70
2023-02-09T10:48:03.504Z,18.67
2023-02-09T10:49:03.523Z,18.66
2023-02-09T10:50:03.470Z,18.65
2023-02-09T10:51:03.437Z,18.66
2023-02-09T10:52:03.430Z,18.66
2023-02-09T10:53:03.423Z,18.64
2023-02-09T10:54:03.356Z,18.59
2023-02-09T10:55:03.318Z,19.38
2023-02-09T10:56:03.312Z,19.07
2023-02-09T10:57:03.426Z,19.06
2023-02-09T10:58:03.246Z,18.37
2023-02-09T10:59:03.232Z,16.36
2023-02-09T11:00:03.197Z,16.42
2023-02-09T11:01:03.252Z,16.30
2023-02-09T11:02:03.455Z,16.08
2023-02-09T11:03:03.139Z,15.55
2023-02-09T11:04:03.764Z,15.94
2023-02-09T11:05:03.105Z,16.60
2023-02-09T11:06:03.086Z,17.67
2023-02-09T11:07:03.437Z,17.83
2023-02-09T11:08:03.062Z,17.81
2023-02-09T11:09:03.242Z,17.78
2023-02-09T11:10:03.042Z,17.77
2023-02-09T11:11:03.029Z,17.79
2023-02-09T11:12:03.438Z,17.78
2023-02-09T11:13:02.989Z,17.77
2023-02-09T11:14:02.975Z,17.85
2023-02-09T11:15:03.046Z,17.84
2023-02-09T11:16:03.059Z,17.88
2023-02-09T11:17:03.135Z,17.85
2023-02-09T11:18:02.940Z,17.92
2023-02-09T11:19:02.964Z,17.95
2023-02-09T11:20:02.877Z,17.93
2023-02-09T11:21:02.832Z,17.97
2023-02-09T11:22:02.959Z,17.95
2023-02-09T11:23:02.949Z,17.97
2023-02-09T11:24:02.794Z,17.96
2023-02-09T11:25:02.753Z,17.94
2023-02-09T11:26:02.745Z,17.95
2023-02-09T11:27:02.950Z,17.99
2023-02-09T11:28:02.984Z,18.00
2023-02-09T11:31:03.051Z,18.01
2023-02-09T11:32:03.117Z,18.00
2023-02-09T12:52:00.221Z,18.86
2023-02-09T14:48:56.117Z,22.73
2023-02-09T14:50:55.958Z,22.72
2023-02-09T14:51:56.197Z,22.71
2023-02-09T14:52:55.897Z,22.72
2023-02-09T14:53:55.854Z,22.71
2023-02-09T14:54:55.830Z,22.66
2023-02-09T14:55:55.792Z,22.65
2023-02-09T14:56:57.871Z,22.65
2023-02-09T14:57:55.720Z,22.66
2023-02-09T14:58:55.688Z,22.62
2023-02-09T14:59:56.041Z,22.62
2023-02-09T15:00:55.623Z,22.60
2023-02-09T15:01:55.606Z,22.61
2023-02-09T15:02:55.607Z,22.59
2023-02-09T15:03:55.503Z,22.57
2023-02-09T15:04:55.477Z,22.59
2023-02-09T15:05:55.431Z,22.55
2023-02-09T15:06:55.392Z,22.54
2023-02-09T15:07:55.362Z,22.52
2023-02-09T15:08:55.520Z,22.51
2023-02-09T15:09:55.294Z,22.50
2023-02-09T15:10:55.267Z,22.48
2023-02-09T15:11:55.233Z,22.46
2023-02-09T15:12:55.228Z,22.46
2023-02-09T15:13:55.166Z,22.46
2023-02-09T15:14:55.141Z,22.43
2023-02-09T15:15:55.133Z,22.39
2023-02-09T15:16:55.053Z,22.40
2023-02-09T15:17:55.064Z,22.40
2023-02-09T15:18:55.036Z,22.39
2023-02-09T15:19:54.958Z,22.39
2023-02-09T15:20:55.020Z,22.36
2023-02-09T15:22:06.622Z,22.34
2023-02-09T15:22:54.848Z,22.36
2023-02-09T15:23:54.819Z,22.35
2023-02-09T15:24:54.888Z,22.33
2023-02-09T15:25:54.757Z,22.32
2023-02-09T15:26:54.714Z,22.31
2023-02-09T15:27:54.708Z,22.30
2023-02-09T15:28:54.657Z,22.30
2023-02-09T15:29:54.658Z,22.30
2023-02-09T15:30:55.038Z,22.26
2023-02-09T15:31:54.565Z,22.22
2023-02-09T15:32:54.529Z,22.22
2023-02-09T15:33:54.520Z,22.19
2023-02-09T15:34:54.459Z,22.16
2023-02-09T15:35:54.529Z,22.16
2023-02-09T15:36:54.410Z,22.16
2023-02-09T15:37:54.369Z,22.17
2023-02-09T15:38:54.335Z,22.19
2023-02-09T15:39:54.302Z,22.16
2023-02-09T15:40:54.263Z,22.16
2023-02-09T15:41:54.234Z,22.15
2023-02-09T15:42:54.213Z,22.13
2023-02-09T15:43:54.586Z,22.11
2023-02-09T15:44:54.140Z,22.13
2023-02-09T15:45:54.532Z,22.08
2023-02-09T15:46:54.139Z,22.06
2023-02-09T15:47:54.047Z,22.08
2023-02-09T15:48:54.015Z,22.06
2023-02-09T15:49:54.003Z,22.03
2023-02-09T15:50:53.982Z,22.01
2023-02-09T15:51:53.901Z,22.01
2023-02-09T15:52:53.869Z,22.00
2023-02-09T15:53:53.834Z,21.98
2023-02-09T15:54:53.816Z,21.98
2023-02-09T15:55:53.764Z,21.99
2023-02-09T15:56:53.725Z,21.99
2023-02-09T15:57:53.695Z,21.98
2023-02-09T15:58:53.661Z,21.97
2023-02-09T15:59:53.616Z,21.96
2023-02-09T16:00:53.593Z,21.96
2023-02-09T16:01:53.572Z,21.96
2023-02-09T16:02:53.567Z,21.96
2023-02-09T16:03:56.647Z,21.95
2023-02-09T16:04:53.429Z,21.93
2023-02-09T16:05:53.425Z,21.92
2023-02-09T16:06:53.365Z,21.92
2023-02-09T16:07:53.307Z,21.90
2023-02-09T16:08:53.790Z,21.88
2023-02-09T16:09:53.240Z,21.89
2023-02-09T16:10:53.231Z,21.88
2023-02-09T16:11:53.609Z,21.85
2023-02-09T16:12:53.157Z,21.86
2023-02-09T16:13:53.136Z,21.85
2023-02-09T16:14:53.504Z,21.87
2023-02-09T16:15:53.117Z,21.85
2023-02-09T16:16:53.182Z,21.86
2023-02-09T16:17:52.990Z,21.85
2023-02-09T16:18:52.963Z,21.82
2023-02-09T16:19:52.932Z,21.83
2023-02-09T16:20:52.896Z,21.85
2023-02-09T16:21:52.959Z,21.83
2023-02-09T16:22:52.823Z,21.82
2023-02-09T16:23:52.781Z,21.81
2023-02-09T16:24:52.765Z,21.80
2023-02-09T16:25:53.039Z,21.81
2023-02-09T16:26:52.743Z,21.83
2023-02-09T16:30:53.080Z,21.75
2023-02-09T20:36:44.063Z,20.49
2023-02-09T20:38:43.996Z,20.48
2023-02-09T20:39:43.959Z,20.48
2023-02-09T20:40:43.979Z,20.45
2023-02-09T20:41:43.880Z,20.42
2023-02-09T20:42:43.848Z,20.41
2023-02-09T20:43:43.827Z,20.40
2023-02-09T20:44:43.786Z,20.39
2023-02-09T20:45:43.799Z,20.39
2023-02-09T20:46:43.709Z,20.40
2023-02-09T20:48:43.630Z,20.38
2023-02-09T20:49:43.607Z,20.37
2023-02-09T20:50:43.602Z,20.36
2023-02-09T20:51:43.521Z,20.36
2023-02-09T20:53:43.470Z,20.34
2023-02-09T20:54:43.419Z,20.35
2023-02-09T20:55:43.373Z,20.38
2023-02-09T20:56:43.338Z,20.39
2023-02-09T20:57:43.303Z,20.35
2023-02-09T20:58:43.269Z,20.35
2023-02-09T20:59:43.234Z,20.35
2023-02-09T21:00:43.238Z,20.38
2023-02-09T21:01:43.172Z,20.34
2023-02-09T21:02:43.183Z,20.33
2023-02-09T21:03:43.094Z,20.37
2023-02-09T21:04:43.053Z,20.37
2023-02-09T21:05:43.024Z,20.33
2023-02-09T21:06:42.986Z,20.32
2023-02-09T21:07:42.959Z,20.33
2023-02-09T21:08:42.927Z,20.31
2023-02-09T21:09:42.954Z,20.34
2023-02-09T21:10:42.864Z,20.35
2023-02-09T21:11:42.885Z,20.34
2023-02-09T21:12:42.798Z,20.31
2023-02-09T21:13:42.785Z,20.30
2023-02-09T21:14:43.143Z,20.34
2023-02-09T21:15:42.716Z,20.36
2023-02-09T21:16:42.778Z,20.34
2023-02-09T21:38:41.911Z,20.24
2023-02-09T21:42:41.753Z,20.25
2023-02-09T21:43:41.721Z,20.26
2023-02-09T21:44:41.684Z,20.25
2023-02-09T21:45:41.646Z,20.21
2023-02-09T21:46:41.613Z,20.25
2023-02-09T21:47:41.569Z,20.22
2023-02-09T21:48:41.539Z,20.24
2023-02-09T21:49:41.509Z,20.28
2023-02-09T21:50:41.461Z,20.28
2023-02-09T21:51:41.421Z,20.32
2023-02-09T21:52:41.384Z,20.27
2023-02-09T21:53:41.353Z,20.23
2023-02-09T21:54:41.312Z,20.24
2023-02-09T21:55:41.268Z,20.22
2023-02-09T21:56:41.236Z,20.20
2023-02-09T21:57:41.222Z,20.18
2023-02-09T21:58:41.169Z,20.17
2023-02-09T21:59:41.129Z,20.17